Time;durP1;ratioP1;P1;durP2;ratioP2;P2;SDS_P1;SDS_P2;PMS_P1;PMS_P2;Temp;Humidity;BMP_temperature;BMP_pressure;BME280_temperature;BME280_humidity;BME280_pressure;Samples;Min_cycle;Max_cycle;Signal;HPM_P1;HPM_P2
2021/01/19 00:01:11;;;;;;;10.55;5.68;;;4.10;99.90;;;;;;5027446;28;20022;-61
2021/01/19 00:03:36;;;;;;;10.88;5.68;;;4.00;99.90;;;;;;5026104;28;20079;-60
2021/01/19 00:06:04;;;;;;;11.15;5.88;;;4.10;99.90;;;;;;5037949;28;20103;-59
2021/01/19 00:08:31;;;;;;;11.02;5.28;;;4.10;99.90;;;;;;5022269;28;20026;-62
2021/01/19 00:10:57;;;;;;;12.98;5.57;;;4.10;99.90;;;;;;5031155;28;20071;-60
2021/01/19 00:13:23;;;;;;;11.02;5.85;;;4.10;99.90;;;;;;5031213;28;20030;-60
2021/01/19 00:15:49;;;;;;;7.88;4.82;;;4.10;99.90;;;;;;5027643;28;20033;-61
2021/01/19 00:18:15;;;;;;;7.93;4.72;;;4.10;99.90;;;;;;5037986;28;20117;-59
2021/01/19 00:20:41;;;;;;;9.35;4.80;;;4.10;99.90;;;;;;5031498;28;20490;-61
2021/01/19 00:23:06;;;;;;;8.95;4.80;;;4.10;99.90;;;;;;5030153;28;20024;-62
2021/01/19 00:25:34;;;;;;;11.65;5.07;;;4.10;99.90;;;;;;5028769;28;20021;-63
2021/01/19 00:28:00;;;;;;;11.18;4.93;;;4.10;99.90;;;;;;5025155;28;20038;-60
2021/01/19 00:30:26;;;;;;;10.23;4.47;;;4.10;99.90;;;;;;5025529;28;20029;-59
2021/01/19 00:32:51;;;;;;;8.27;4.70;;;4.10;99.90;;;;;;5024563;28;20038;-59
2021/01/19 00:35:17;;;;;;;8.38;4.78;;;4.10;99.90;;;;;;5031770;28;20014;-61
2021/01/19 00:37:42;;;;;;;7.75;3.75;;;4.10;99.90;;;;;;5031339;28;20040;-59
2021/01/19 00:40:08;;;;;;;7.65;3.90;;;4.10;99.90;;;;;;5027133;28;20030;-60
2021/01/19 00:42:34;;;;;;;9.63;4.35;;;4.10;99.90;;;;;;5032465;28;20045;-59
2021/01/19 00:44:59;;;;;;;6.53;3.60;;;4.10;99.90;;;;;;5022405;28;20037;-63
2021/01/19 00:47:25;;;;;;;8.70;3.85;;;4.10;99.90;;;;;;5026527;28;20033;-58
2021/01/19 00:49:50;;;;;;;8.30;4.10;;;4.10;99.90;;;;;;5027496;28;20036;-56
2021/01/19 00:52:16;;;;;;;9.07;3.65;;;4.10;99.90;;;;;;5030592;28;20104;-62
2021/01/19 00:54:41;;;;;;;6.63;3.75;;;4.10;99.90;;;;;;5030397;28;20033;-59
2021/01/19 00:57:09;;;;;;;6.93;3.58;;;4.10;99.90;;;;;;5026426;28;20021;-56
2021/01/19 00:59:34;;;;;;;9.57;3.63;;;4.10;99.90;;;;;;5033503;28;20018;-57
2021/01/19 01:02:00;;;;;;;8.00;3.53;;;4.10;99.90;;;;;;5032531;28;20048;-53
2021/01/19 01:04:25;;;;;;;11.70;3.67;;;4.10;99.90;;;;;;5031560;28;20022;-57
2021/01/19 01:06:53;;;;;;;6.68;3.28;;;4.10;99.90;;;;;;5032519;28;20031;-56
2021/01/19 01:09:19;;;;;;;10.48;3.95;;;4.10;99.90;;;;;;5016277;28;20041;-56
2021/01/19 01:11:45;;;;;;;12.18;3.17;;;4.10;99.90;;;;;;5032820;28;20033;-55
2021/01/19 01:14:12;;;;;;;5.57;2.65;;;4.10;99.90;;;;;;5032904;28;20024;-53
2021/01/19 01:16:38;;;;;;;11.27;3.83;;;4.10;99.90;;;;;;5032048;28;20495;-61
2021/01/19 01:19:04;;;;;;;7.57;2.92;;;4.20;99.90;;;;;;5021501;28;20108;-61
2021/01/19 01:21:30;;;;;;;7.63;2.80;;;4.20;99.90;;;;;;5031240;28;20040;-60
2021/01/19 01:23:55;;;;;;;10.38;3.13;;;4.30;99.90;;;;;;5025812;28;20467;-59
2021/01/19 01:26:23;;;;;;;11.02;3.00;;;4.20;99.90;;;;;;5029644;28;20025;-59
2021/01/19 01:28:48;;;;;;;11.93;2.63;;;4.20;99.90;;;;;;5029402;28;20025;-56
2021/01/19 01:31:20;;;;;;;6.88;2.53;;;4.20;99.90;;;;;;5030304;28;20061;-60
2021/01/19 01:33:47;;;;;;;6.20;2.60;;;4.30;99.90;;;;;;5024481;28;20026;-61
2021/01/19 01:36:13;;;;;;;9.57;2.70;;;4.20;99.90;;;;;;5029851;28;20467;-60
2021/01/19 01:38:39;;;;;;;5.35;2.42;;;4.20;99.90;;;;;;5030514;28;20132;-60
2021/01/19 01:41:15;;;;;;;9.63;2.55;;;4.20;99.90;;;;;;5031235;28;20072;-59
2021/01/19 01:43:40;;;;;;;8.48;2.20;;;4.20;99.90;;;;;;5031530;28;20056;-61
2021/01/19 01:46:09;;;;;;;10.60;2.75;;;4.20;99.90;;;;;;5029645;28;20499;-59
2021/01/19 01:48:35;;;;;;;7.55;2.35;;;4.20;99.90;;;;;;5031620;28;20053;-60
2021/01/19 01:51:01;;;;;;;7.85;2.88;;;4.20;99.90;;;;;;5028573;28;20747;-60
2021/01/19 01:53:26;;;;;;;7.20;2.40;;;4.20;99.90;;;;;;5031579;28;20072;-60
2021/01/19 01:55:52;;;;;;;9.38;2.15;;;4.20;99.90;;;;;;5030087;28;20076;-59
2021/01/19 01:58:18;;;;;;;8.00;2.60;;;4.20;99.90;;;;;;5029125;28;20033;-62
2021/01/19 02:00:43;;;;;;;7.40;2.53;;;4.20;99.90;;;;;;5023144;28;20065;-59
2021/01/19 02:03:09;;;;;;;10.63;4.40;;;4.10;99.90;;;;;;5034864;28;20055;-61
2021/01/19 02:05:34;;;;;;;5.13;2.22;;;4.10;99.90;;;;;;5031083;28;20041;-59
2021/01/19 02:08:03;;;;;;;12.45;2.72;;;4.10;99.90;;;;;;5034444;28;20033;-61
2021/01/19 02:10:45;;;;;;;6.00;2.70;;;4.20;99.90;;;;;;5023214;28;20063;-61
2021/01/19 02:13:25;;;;;;;6.65;2.15;;;4.20;99.90;;;;;;5021257;28;20040;-60
2021/01/19 02:16:05;;;;;;;6.35;2.10;;;4.20;99.90;;;;;;5026704;28;20022;-62
2021/01/19 02:18:39;;;;;;;8.60;2.30;;;4.20;99.90;;;;;;5029150;28;20049;-61
2021/01/19 02:21:14;;;;;;;9.52;2.55;;;4.10;99.90;;;;;;5009703;28;575758;-62
2021/01/19 02:23:55;;;;;;;6.25;2.25;;;4.20;99.90;;;;;;5031845;28;20021;-61
2021/01/19 02:26:39;;;;;;;6.43;2.40;;;4.10;99.90;;;;;;5025944;28;20029;-60
2021/01/19 02:29:49;;;;;;;15.60;3.33;;;4.20;99.90;;;;;;5022147;28;20033;-61
2021/01/19 02:32:44;;;;;;;8.65;2.38;;;4.20;99.90;;;;;;5038459;28;20030;-56
2021/01/19 02:35:19;;;;;;;9.60;3.00;;;4.10;99.90;;;;;;5029613;28;20050;-56
2021/01/19 02:38:07;;;;;;;11.05;2.42;;;4.10;99.90;;;;;;5031467;28;20045;-58
2021/01/19 02:40:34;;;;;;;7.75;3.00;;;4.10;99.90;;;;;;5026852;28;20032;-58
2021/01/19 02:43:20;;;;;;;6.30;2.30;;;4.10;99.90;;;;;;5023943;28;20067;-60
2021/01/19 02:45:46;;;;;;;5.70;1.70;;;4.10;99.90;;;;;;5029153;28;20053;-57
2021/01/19 02:48:12;;;;;;;9.15;2.17;;;4.10;99.90;;;;;;5022068;28;20022;-59
2021/01/19 02:50:38;;;;;;;8.05;1.83;;;4.10;99.90;;;;;;5027774;28;20109;-59
2021/01/19 02:53:05;;;;;;;11.57;1.85;;;4.00;99.90;;;;;;5029511;28;20502;-59
2021/01/19 02:55:32;;;;;;;9.73;2.15;;;4.00;99.90;;;;;;5027149;28;20025;-59
2021/01/19 02:58:16;;;;;;;7.38;1.77;;;4.00;99.90;;;;;;5019152;28;20060;-61
2021/01/19 03:01:05;;;;;;;6.88;1.75;;;4.00;99.90;;;;;;5028252;28;20021;-59
2021/01/19 03:03:39;;;;;;;6.00;2.22;;;4.00;99.90;;;;;;5022587;28;20036;-59
2021/01/19 03:06:12;;;;;;;6.75;1.83;;;3.90;99.90;;;;;;5026992;28;20029;-59
2021/01/19 03:08:40;;;;;;;7.43;1.75;;;3.90;99.90;;;;;;5001690;28;20121;-57
2021/01/19 03:11:07;;;;;;;5.65;1.70;;;3.80;99.90;;;;;;5017311;28;20087;-59
2021/01/19 03:13:33;;;;;;;7.03;1.70;;;3.80;99.90;;;;;;5017547;28;20280;-60
2021/01/19 03:16:08;;;;;;;13.30;2.00;;;3.80;99.90;;;;;;5031601;28;20025;-60
2021/01/19 03:18:34;;;;;;;7.35;1.60;;;3.80;99.90;;;;;;5025891;28;20032;-59
2021/01/19 03:21:03;;;;;;;14.40;2.03;;;3.70;99.90;;;;;;5031029;28;20036;-61
2021/01/19 03:23:28;;;;;;;10.20;2.25;;;3.70;99.90;;;;;;5026458;28;20106;-60
2021/01/19 03:25:54;;;;;;;9.38;1.73;;;3.70;99.90;;;;;;5030830;28;20108;-59
2021/01/19 03:28:20;;;;;;;4.38;1.42;;;3.70;99.90;;;;;;5028115;28;20056;-59
2021/01/19 03:30:45;;;;;;;11.27;1.80;;;3.70;99.90;;;;;;5027210;28;20025;-61
2021/01/19 03:33:11;;;;;;;18.63;2.00;;;3.60;99.90;;;;;;5031328;28;20036;-60
2021/01/19 03:35:39;;;;;;;5.10;1.60;;;3.60;99.90;;;;;;5027294;28;20101;-62
2021/01/19 03:38:08;;;;;;;12.27;1.77;;;3.60;99.90;;;;;;5028794;28;20030;-62
2021/01/19 03:40:34;;;;;;;8.73;2.08;;;3.60;99.90;;;;;;5025618;28;20087;-60
2021/01/19 03:43:00;;;;;;;9.70;1.70;;;3.60;99.90;;;;;;5026539;28;20038;-62
2021/01/19 03:45:27;;;;;;;14.30;1.92;;;3.60;99.90;;;;;;5028942;28;20386;-60
2021/01/19 03:47:52;;;;;;;9.85;1.77;;;3.60;99.90;;;;;;5024635;28;20112;-62
2021/01/19 03:50:18;;;;;;;8.70;1.80;;;3.50;99.90;;;;;;5023106;28;20594;-62
2021/01/19 03:52:44;;;;;;;10.65;1.98;;;3.50;99.90;;;;;;5013995;28;20035;-62
2021/01/19 03:55:10;;;;;;;6.07;1.45;;;3.50;99.90;;;;;;5030311;28;20045;-61
2021/01/19 03:57:35;;;;;;;13.05;1.90;;;3.50;99.90;;;;;;5024988;28;20026;-61
2021/01/19 04:00:20;;;;;;;10.50;1.70;;;3.50;99.90;;;;;;5026144;28;20025;-62
2021/01/19 04:02:45;;;;;;;;;;;3.50;99.90;;;;;;5030000;28;20364;-62
2021/01/19 04:05:11;;;;;;;10.57;1.80;;;3.50;99.90;;;;;;5026861;28;19917;-62
2021/01/19 04:07:39;;;;;;;9.02;1.80;;;3.60;99.90;;;;;;5015011;28;20487;-60
2021/01/19 04:10:07;;;;;;;8.93;1.70;;;3.70;99.90;;;;;;5017937;28;20037;-62
2021/01/19 04:12:33;;;;;;;6.75;1.65;;;3.70;99.90;;;;;;5030292;28;20074;-62
2021/01/19 04:14:58;;;;;;;6.78;2.03;;;3.80;99.90;;;;;;5022122;28;20104;-62
2021/01/19 04:17:24;;;;;;;13.05;1.88;;;3.80;99.90;;;;;;5022193;28;20099;-58
2021/01/19 04:19:49;;;;;;;8.07;1.50;;;3.80;99.90;;;;;;5027495;28;20033;-59
2021/01/19 04:22:15;;;;;;;9.32;2.13;;;3.80;99.90;;;;;;5020510;28;20025;-60
2021/01/19 04:24:40;;;;;;;7.68;1.75;;;3.90;99.90;;;;;;5032469;28;20029;-57
2021/01/19 04:27:06;;;;;;;4.15;1.45;;;3.90;99.90;;;;;;5024661;28;20031;-62
2021/01/19 04:29:31;;;;;;;11.13;2.85;;;3.90;99.90;;;;;;5030223;28;20487;-62
2021/01/19 04:31:57;;;;;;;5.68;1.67;;;3.90;99.90;;;;;;5028109;28;20025;-62
2021/01/19 04:34:22;;;;;;;4.78;1.95;;;4.00;99.90;;;;;;5029438;28;20022;-60
2021/01/19 04:36:48;;;;;;;6.53;2.05;;;4.00;99.90;;;;;;5019811;28;20017;-62
2021/01/19 04:39:13;;;;;;;7.32;2.22;;;4.00;99.90;;;;;;5027353;28;20037;-56
2021/01/19 04:41:39;;;;;;;8.75;1.90;;;4.00;99.90;;;;;;5027038;28;20100;-62
2021/01/19 04:44:06;;;;;;;12.13;2.53;;;4.00;99.90;;;;;;5023196;28;20033;-60
2021/01/19 04:46:34;;;;;;;10.13;2.67;;;4.00;99.90;;;;;;5026308;28;20021;-60
2021/01/19 04:49:02;;;;;;;13.25;2.35;;;4.10;99.90;;;;;;5030122;28;20098;-59
2021/01/19 04:51:33;;;;;;;9.55;2.22;;;4.00;99.90;;;;;;5024668;28;20100;-59
2021/01/19 04:54:03;;;;;;;15.07;2.15;;;4.10;99.90;;;;;;5026737;28;20045;-62
2021/01/19 04:56:29;;;;;;;8.07;1.60;;;4.10;99.90;;;;;;5020850;28;20061;-62
2021/01/19 04:58:56;;;;;;;8.40;1.83;;;4.10;99.90;;;;;;5026569;28;20368;-62
2021/01/19 05:01:37;;;;;;;13.63;2.20;;;4.10;99.90;;;;;;5028006;28;20108;-61
2021/01/19 05:04:27;;;;;;;8.82;2.13;;;4.10;99.90;;;;;;5018561;28;20368;-61
2021/01/19 05:07:32;;;;;;;16.25;2.20;;;4.00;99.90;;;;;;5025687;28;20021;-62
2021/01/19 05:13:46;;;;;;;12.23;1.95;;;4.10;99.90;;;;;;5030301;28;20036;-62
2021/01/19 05:16:20;;;;;;;15.23;2.13;;;4.10;99.90;;;;;;5032680;28;20391;-59
2021/01/19 05:18:47;;;;;;;8.98;2.33;;;4.10;99.90;;;;;;5032227;28;20013;-62
2021/01/19 05:21:13;;;;;;;9.82;1.88;;;4.10;99.90;;;;;;5032755;28;20076;-62
2021/01/19 05:23:39;;;;;;;12.15;3.42;;;4.00;99.90;;;;;;5031178;28;20096;-62
2021/01/19 05:26:07;;;;;;;8.88;1.85;;;4.00;99.90;;;;;;5028456;28;20457;-62
2021/01/19 05:28:40;;;;;;;18.77;4.13;;;4.00;99.90;;;;;;5033310;28;20025;-59
2021/01/19 05:31:14;;;;;;;10.98;2.00;;;3.90;99.90;;;;;;5032998;28;20056;-62
2021/01/19 05:33:40;;;;;;;11.82;1.90;;;3.90;99.90;;;;;;5030003;28;20025;-62
2021/01/19 05:36:07;;;;;;;7.07;1.75;;;3.90;99.90;;;;;;5023670;28;20048;-60
2021/01/19 05:38:46;;;;;;;17.42;2.05;;;3.90;99.90;;;;;;5024296;28;20040;-60
2021/01/19 05:41:28;;;;;;;17.35;4.43;;;3.90;99.90;;;;;;5032535;28;20024;-62
2021/01/19 05:43:54;;;;;;;13.63;2.53;;;3.80;99.90;;;;;;5032266;28;20029;-60
2021/01/19 05:46:28;;;;;;;12.85;2.42;;;3.80;99.90;;;;;;5032787;28;20059;-62
2021/01/19 05:49:03;;;;;;;11.98;2.47;;;3.80;99.90;;;;;;5031166;28;20037;-59
2021/01/19 05:51:31;;;;;;;5.35;1.77;;;3.80;99.90;;;;;;5032023;28;20060;-62
2021/01/19 05:53:57;;;;;;;14.15;2.85;;;3.80;99.90;;;;;;5022304;28;20132;-61
2021/01/19 05:56:24;;;;;;;7.53;1.90;;;3.80;99.90;;;;;;5026165;28;20506;-63
2021/01/19 05:58:50;;;;;;;12.93;2.42;;;3.80;99.90;;;;;;5031720;28;20040;-62
2021/01/19 06:01:30;;;;;;;9.18;2.30;;;3.70;99.90;;;;;;5046877;28;20083;-58
2021/01/19 06:04:01;;;;;;;9.95;1.92;;;3.70;99.90;;;;;;5030024;28;20033;-62
2021/01/19 06:06:28;;;;;;;6.75;2.15;;;3.70;99.90;;;;;;5032515;28;20032;-62
2021/01/19 06:08:58;;;;;;;11.63;3.65;;;3.70;99.90;;;;;;5029744;28;20506;-60
2021/01/19 06:11:24;;;;;;;7.95;2.00;;;3.60;99.90;;;;;;5024712;28;20593;-62
2021/01/19 06:13:50;;;;;;;8.48;2.33;;;3.70;99.90;;;;;;5029969;28;20026;-61
2021/01/19 06:16:19;;;;;;;8.35;1.83;;;3.70;99.90;;;;;;5032176;28;20021;-62
2021/01/19 06:18:45;;;;;;;11.18;2.38;;;3.60;99.90;;;;;;5030356;28;20075;-61
2021/01/19 06:21:24;;;;;;;10.40;2.67;;;3.60;99.90;;;;;;5027943;28;20022;-62
2021/01/19 06:23:49;;;;;;;18.02;4.93;;;3.70;99.90;;;;;;5026654;28;20018;-60
2021/01/19 06:26:15;;;;;;;50.75;18.70;;;3.70;99.90;;;;;;5025230;28;20021;-62
2021/01/19 06:28:43;;;;;;;15.82;3.38;;;3.60;99.90;;;;;;5029365;28;20021;-61
2021/01/19 06:31:14;;;;;;;27.23;7.85;;;3.60;99.90;;;;;;5023191;28;20030;-59
2021/01/19 06:33:41;;;;;;;16.02;6.50;;;3.70;99.90;;;;;;5028373;28;20017;-59
2021/01/19 06:36:08;;;;;;;14.70;4.35;;;3.70;99.90;;;;;;5028790;28;20048;-59
2021/01/19 06:38:34;;;;;;;7.80;3.50;;;3.60;99.90;;;;;;5027429;28;20021;-61
2021/01/19 06:41:01;;;;;;;10.02;4.05;;;3.60;99.90;;;;;;5029462;28;20111;-61
2021/01/19 06:43:35;;;;;;;20.30;7.90;;;3.60;99.90;;;;;;5031229;28;20056;-56
2021/01/19 06:46:08;;;;;;;22.02;7.80;;;3.70;99.90;;;;;;5029338;28;20030;-59
2021/01/19 06:48:35;;;;;;;19.73;9.77;;;3.70;99.90;;;;;;5029881;28;20025;-60
2021/01/19 06:51:02;;;;;;;33.13;12.30;;;3.70;99.90;;;;;;5029021;28;20495;-62
2021/01/19 06:53:55;;;;;;;13.50;6.95;;;3.80;99.90;;;;;;5029473;28;20118;-59
2021/01/19 06:56:29;;;;;;;21.77;8.98;;;3.70;99.90;;;;;;5027575;28;20034;-62
2021/01/19 06:58:56;;;;;;;9.48;4.25;;;3.80;99.90;;;;;;5027696;28;20022;-60
2021/01/19 07:01:29;;;;;;;17.27;9.30;;;3.80;99.90;;;;;;5029737;28;20414;-60
2021/01/19 07:04:22;;;;;;;10.63;3.67;;;3.80;99.90;;;;;;5027398;28;20025;-58
2021/01/19 07:07:18;;;;;;;12.73;3.28;;;3.80;99.90;;;;;;5029068;28;20022;-59
2021/01/19 07:10:09;;;;;;;9.35;3.30;;;3.80;99.90;;;;;;5024056;28;20025;-57
2021/01/19 07:13:00;;;;;;;21.65;7.05;;;3.80;99.90;;;;;;5027236;28;20032;-59
2021/01/19 07:15:50;;;;;;;19.05;5.82;;;3.80;99.90;;;;;;5027736;28;20441;-62
2021/01/19 07:18:41;;;;;;;4.18;2.33;;;3.80;99.90;;;;;;5029966;28;20024;-62
2021/01/19 07:21:11;;;;;;;7.68;1.90;;;3.80;99.90;;;;;;5026125;28;20079;-58
2021/01/19 07:23:46;;;;;;;11.18;2.50;;;3.80;99.90;;;;;;5028973;28;20029;-61
2021/01/19 07:26:23;;;;;;;8.18;2.33;;;3.80;99.90;;;;;;5023724;28;20499;-60
2021/01/19 07:28:51;;;;;;;11.20;4.20;;;3.80;99.90;;;;;;5027166;28;20506;-62
2021/01/19 07:31:18;;;;;;;5.53;1.65;;;3.80;99.90;;;;;;5040281;28;20038;-60
2021/01/19 07:33:48;;;;;;;10.70;2.17;;;3.80;99.90;;;;;;5023653;28;20041;-60
2021/01/19 07:36:15;;;;;;;4.65;1.48;;;3.90;99.90;;;;;;5023339;28;20029;-62
2021/01/19 07:38:41;;;;;;;4.75;1.60;;;3.80;99.90;;;;;;5026000;28;20018;-62
2021/01/19 07:41:07;;;;;;;6.35;2.08;;;3.90;99.90;;;;;;5022101;28;20033;-61
2021/01/19 07:43:37;;;;;;;5.93;1.65;;;3.90;99.90;;;;;;5021344;28;20025;-58
2021/01/19 07:46:03;;;;;;;9.50;1.85;;;3.80;99.90;;;;;;5024104;28;20429;-59
2021/01/19 07:48:33;;;;;;;6.65;1.65;;;3.80;99.90;;;;;;5023786;28;20474;-57
2021/01/19 07:51:16;;;;;;;6.72;1.48;;;3.90;99.90;;;;;;5020598;28;20025;-57
2021/01/19 07:53:48;;;;;;;6.85;1.75;;;3.90;99.90;;;;;;5027127;28;20038;-56
2021/01/19 07:56:25;;;;;;;4.45;1.95;;;3.90;99.90;;;;;;5030732;28;20052;-58
2021/01/19 07:58:51;;;;;;;7.95;2.10;;;3.90;99.90;;;;;;5028628;28;20431;-56
2021/01/19 08:01:31;;;;;;;7.97;1.85;;;3.90;99.90;;;;;;5003190;28;20045;-56
2021/01/19 08:04:15;;;;;;;7.90;2.22;;;3.90;99.90;;;;;;5030058;28;20055;-62
2021/01/19 08:06:44;;;;;;;10.57;2.15;;;3.90;99.90;;;;;;5028964;28;20029;-63
2021/01/19 08:09:15;;;;;;;4.32;2.03;;;3.90;99.90;;;;;;5027411;28;20033;-60
2021/01/19 08:11:42;;;;;;;4.70;1.17;;;3.80;99.90;;;;;;5024396;28;20103;-62
2021/01/19 08:14:09;;;;;;;7.00;1.77;;;3.80;99.90;;;;;;5027662;28;20017;-59
2021/01/19 08:16:38;;;;;;;4.93;1.65;;;3.90;99.90;;;;;;5025234;28;20021;-58
2021/01/19 08:19:15;;;;;;;7.50;2.45;;;3.90;99.90;;;;;;5024292;28;20042;-59
2021/01/19 08:21:40;;;;;;;7.90;2.10;;;3.90;99.90;;;;;;5023557;28;20026;-58
2021/01/19 08:24:08;;;;;;;7.00;1.65;;;3.90;99.90;;;;;;5031671;28;20017;-60
2021/01/19 08:26:34;;;;;;;4.60;2.17;;;3.90;99.90;;;;;;5032237;28;20057;-59
2021/01/19 08:29:01;;;;;;;7.82;1.55;;;3.90;99.90;;;;;;5029153;28;20033;-59
2021/01/19 08:31:29;;;;;;;4.50;0.93;;;3.90;99.90;;;;;;5031659;28;20080;-61
2021/01/19 08:33:59;;;;;;;2.70;1.13;;;3.90;99.90;;;;;;5033597;28;20053;-60
2021/01/19 08:36:27;;;;;;;5.22;1.30;;;3.90;99.90;;;;;;5031225;28;20072;-62
2021/01/19 08:38:54;;;;;;;8.07;1.58;;;4.00;99.90;;;;;;5032979;28;20037;-63
2021/01/19 08:41:20;;;;;;;5.60;1.70;;;4.00;99.90;;;;;;5025173;28;20088;-60
2021/01/19 08:44:02;;;;;;;1.98;1.35;;;4.00;99.90;;;;;;5029771;28;20446;-60
2021/01/19 08:46:31;;;;;;;3.50;1.40;;;4.00;99.90;;;;;;5028233;28;20029;-62
2021/01/19 08:49:11;;;;;;;5.57;1.00;;;4.00;99.90;;;;;;5028759;28;20057;-60
2021/01/19 08:51:41;;;;;;;6.00;1.17;;;4.10;99.90;;;;;;5028228;28;21650;-60
2021/01/19 08:54:08;;;;;;;1.27;0.57;;;4.10;99.90;;;;;;5028760;28;20184;-60
2021/01/19 08:56:38;;;;;;;3.42;1.42;;;4.10;99.90;;;;;;5023653;28;20030;-59
2021/01/19 08:59:04;;;;;;;3.97;1.52;;;4.10;99.90;;;;;;5027115;28;20032;-62
2021/01/19 09:01:29;;;;;;;3.65;0.73;;;4.10;99.90;;;;;;5005248;28;20033;-61
2021/01/19 09:04:00;;;;;;;2.55;0.80;;;4.10;99.90;;;;;;5029375;28;20025;-59
2021/01/19 09:06:26;;;;;;;3.38;0.60;;;4.10;99.90;;;;;;5031077;28;20025;-60
2021/01/19 09:08:56;;;;;;;18.95;5.78;;;4.10;99.90;;;;;;5030858;28;20033;-60
2021/01/19 09:11:29;;;;;;;7.60;2.80;;;4.10;99.90;;;;;;5022075;28;20022;-59
2021/01/19 09:14:06;;;;;;;22.90;7.00;;;4.10;99.90;;;;;;5027892;28;20030;-57
2021/01/19 09:16:33;;;;;;;8.25;2.47;;;4.10;99.90;;;;;;5031811;28;20022;-58
2021/01/19 09:19:00;;;;;;;11.77;4.97;;;4.10;99.90;;;;;;5034432;28;20025;-59
2021/01/19 09:21:26;;;;;;;17.73;8.13;;;4.20;99.90;;;;;;5026158;28;20566;-59
2021/01/19 09:23:53;;;;;;;13.30;5.97;;;4.20;99.90;;;;;;5027312;28;20025;-59
2021/01/19 09:26:19;;;;;;;27.50;11.85;;;4.20;99.90;;;;;;5031830;28;20021;-62
2021/01/19 09:28:45;;;;;;;6.25;1.42;;;4.20;99.90;;;;;;5026257;28;20026;-60
2021/01/19 09:31:20;;;;;;;7.43;3.70;;;4.20;99.90;;;;;;5025293;28;20072;-59
2021/01/19 09:33:48;;;;;;;15.93;7.15;;;4.20;99.90;;;;;;5032150;28;20033;-57
2021/01/19 09:36:14;;;;;;;11.13;3.58;;;4.20;99.90;;;;;;5031281;28;20443;-60
2021/01/19 09:38:41;;;;;;;4.70;1.85;;;4.20;99.90;;;;;;5034304;28;20532;-60
2021/01/19 09:41:07;;;;;;;21.70;11.45;;;4.20;99.90;;;;;;5030807;28;20487;-60
2021/01/19 09:43:34;;;;;;;9.00;4.18;;;4.30;99.90;;;;;;5030564;28;20028;-60
2021/01/19 09:46:07;;;;;;;16.52;8.38;;;4.20;99.90;;;;;;5028955;28;20036;-62
2021/01/19 09:48:35;;;;;;;23.80;10.88;;;4.20;99.90;;;;;;5030171;28;20025;-61
2021/01/19 09:51:05;;;;;;;12.18;6.00;;;4.20;99.90;;;;;;5020655;28;20060;-61
2021/01/19 09:53:33;;;;;;;14.07;5.80;;;4.20;99.90;;;;;;5026293;28;20482;-59
2021/01/19 09:56:14;;;;;;;30.13;13.77;;;4.20;99.90;;;;;;5031783;28;20033;-62
2021/01/19 09:58:39;;;;;;;21.02;10.43;;;4.20;99.90;;;;;;5030890;28;20083;-60
2021/01/19 10:01:05;;;;;;;7.88;3.85;;;4.20;99.90;;;;;;5001687;28;20046;-60
2021/01/19 10:03:34;;;;;;;25.13;7.82;;;4.20;99.90;;;;;;5029972;28;21993;-62
2021/01/19 10:06:00;;;;;;;8.00;3.85;;;4.20;99.90;;;;;;5023477;28;20140;-62
2021/01/19 10:08:26;;;;;;;12.07;5.10;;;4.20;99.90;;;;;;5025663;28;20113;-59
2021/01/19 10:10:52;;;;;;;6.97;3.88;;;4.20;99.90;;;;;;5028777;28;20033;-62
2021/01/19 10:13:27;;;;;;;4.63;2.20;;;4.20;99.90;;;;;;5031192;28;20033;-58
2021/01/19 10:16:01;;;;;;;11.60;6.15;;;4.20;99.90;;;;;;5025227;28;20087;-60
2021/01/19 10:18:27;;;;;;;10.95;6.25;;;4.20;99.90;;;;;;5026842;28;20027;-60
2021/01/19 10:20:53;;;;;;;7.43;3.80;;;4.20;99.90;;;;;;5026459;28;20040;-62
2021/01/19 10:23:27;;;;;;;12.63;4.18;;;4.30;99.90;;;;;;5022141;28;20030;-58
2021/01/19 10:26:07;;;;;;;9.68;4.03;;;4.30;99.90;;;;;;5023055;28;20059;-55
2021/01/19 10:28:42;;;;;;;6.75;3.63;;;4.30;99.90;;;;;;5022497;28;20033;-58
2021/01/19 10:31:22;;;;;;;8.35;4.30;;;4.30;99.90;;;;;;5024081;28;20063;-56
2021/01/19 10:34:03;;;;;;;37.20;17.65;;;4.40;99.90;;;;;;5026334;28;20025;-56
2021/01/19 10:36:30;;;;;;;41.20;21.20;;;4.40;99.90;;;;;;5032241;28;20491;-62
2021/01/19 10:39:07;;;;;;;109.10;48.65;;;4.40;99.90;;;;;;5032963;28;20506;-60
2021/01/19 10:41:33;;;;;;;133.60;39.15;;;4.50;99.90;;;;;;5028002;28;20448;-61
2021/01/19 10:43:59;;;;;;;83.43;22.55;;;4.50;99.90;;;;;;5030888;28;20057;-60
2021/01/19 10:46:31;;;;;;;98.47;28.67;;;4.50;99.90;;;;;;5026960;28;20032;-59
2021/01/19 10:49:05;;;;;;;63.50;20.55;;;4.60;99.90;;;;;;5030758;28;20457;-61
2021/01/19 10:51:31;;;;;;;;;;;4.60;99.90;;;;;;5022408;28;20380;-61
2021/01/19 10:54:10;;;;;;;38.22;15.32;;;4.60;99.90;;;;;;5030285;28;19995;-57
2021/01/19 10:56:37;;;;;;;25.33;11.98;;;4.70;99.90;;;;;;5028951;28;20032;-61
2021/01/19 10:59:03;;;;;;;9.30;5.32;;;4.70;99.90;;;;;;5027340;28;20025;-59
2021/01/19 11:01:31;;;;;;;6.45;2.53;;;4.70;99.90;;;;;;5029794;28;20029;-56
2021/01/19 11:03:56;;;;;;;12.43;7.20;;;4.70;99.90;;;;;;5009744;28;20563;-59
2021/01/19 11:06:28;;;;;;;13.50;7.75;;;4.80;99.90;;;;;;5029136;28;20045;-57
2021/01/19 11:08:53;;;;;;;10.75;5.03;;;4.70;99.90;;;;;;5019612;28;20032;-57
2021/01/19 11:11:19;;;;;;;11.60;4.70;;;4.80;99.90;;;;;;5027365;28;20025;-58
2021/01/19 11:13:44;;;;;;;11.43;6.32;;;4.70;99.90;;;;;;5028511;28;20022;-57
2021/01/19 11:16:10;;;;;;;10.65;3.63;;;4.70;99.90;;;;;;5023857;28;20033;-58
2021/01/19 11:18:36;;;;;;;14.05;6.72;;;4.80;99.90;;;;;;5020283;28;20025;-61
2021/01/19 11:21:05;;;;;;;13.00;6.07;;;4.80;99.90;;;;;;5025537;28;20021;-59
2021/01/19 11:23:31;;;;;;;31.33;14.25;;;4.80;99.90;;;;;;5029342;28;20049;-60
2021/01/19 11:25:57;;;;;;;32.35;14.88;;;4.80;99.90;;;;;;5023984;28;20494;-59
2021/01/19 11:28:23;;;;;;;31.92;15.50;;;4.90;99.90;;;;;;5026131;28;20074;-60
2021/01/19 11:30:50;;;;;;;40.13;19.52;;;4.90;99.90;;;;;;5022977;28;20076;-63
2021/01/19 11:33:16;;;;;;;13.68;6.93;;;4.90;99.90;;;;;;5017643;28;20114;-62
2021/01/19 11:35:41;;;;;;;6.30;2.72;;;4.90;99.90;;;;;;5021491;28;20160;-60
2021/01/19 11:38:07;;;;;;;22.45;11.50;;;5.00;99.90;;;;;;5026471;28;20029;-63
2021/01/19 11:40:32;;;;;;;10.68;4.97;;;5.00;99.90;;;;;;5025728;28;20403;-58
2021/01/19 11:42:58;;;;;;;20.13;8.93;;;5.00;99.90;;;;;;5020861;28;20034;-58
2021/01/19 11:45:24;;;;;;;5.55;2.50;;;5.00;99.90;;;;;;5026204;28;20132;-59
2021/01/19 11:47:50;;;;;;;8.02;2.60;;;5.10;99.90;;;;;;5026598;28;20068;-60
2021/01/19 11:50:15;;;;;;;13.70;6.32;;;5.10;99.90;;;;;;5029105;28;20427;-60
2021/01/19 11:52:41;;;;;;;9.75;4.10;;;5.20;99.90;;;;;;5025061;28;20427;-61
2021/01/19 11:55:07;;;;;;;14.77;6.60;;;5.30;99.90;;;;;;5021860;28;20028;-61
2021/01/19 11:57:33;;;;;;;8.10;4.72;;;5.30;99.90;;;;;;5025335;28;20049;-61
2021/01/19 11:59:58;;;;;;;5.13;3.42;;;5.30;99.90;;;;;;5025645;28;20159;-61
2021/01/19 12:02:24;;;;;;;9.18;5.30;;;5.40;99.90;;;;;;5006345;28;20034;-61
2021/01/19 12:04:49;;;;;;;19.55;12.45;;;5.40;99.90;;;;;;5024713;28;20041;-61
2021/01/19 12:07:15;;;;;;;64.13;26.55;;;5.40;99.90;;;;;;5017654;28;20642;-60
2021/01/19 12:09:41;;;;;;;30.67;10.77;;;5.50;99.90;;;;;;5022411;28;20486;-60
2021/01/19 12:12:07;;;;;;;39.75;16.05;;;5.50;99.90;;;;;;5026601;28;20402;-60
2021/01/19 12:14:33;;;;;;;61.22;24.15;;;5.50;99.90;;;;;;5028287;28;20044;-60
2021/01/19 12:16:59;;;;;;;55.55;21.58;;;5.50;99.90;;;;;;5018943;28;20546;-57
2021/01/19 12:19:25;;;;;;;42.38;15.10;;;5.60;99.90;;;;;;5026658;28;20029;-60
2021/01/19 12:21:53;;;;;;;43.13;15.80;;;5.60;99.90;;;;;;5027037;28;20104;-57
2021/01/19 12:24:19;;;;;;;32.92;12.77;;;5.60;99.90;;;;;;5032089;28;20036;-61
2021/01/19 12:26:46;;;;;;;46.38;18.35;;;5.60;99.90;;;;;;5031895;28;20029;-61
2021/01/19 12:29:13;;;;;;;25.45;10.02;;;5.60;99.90;;;;;;5031456;28;20018;-60
2021/01/19 12:31:39;;;;;;;11.18;5.15;;;5.60;99.90;;;;;;5026604;28;20128;-60
2021/01/19 12:34:04;;;;;;;5.35;2.35;;;5.60;99.90;;;;;;5025847;28;20026;-60
2021/01/19 12:36:30;;;;;;;2.78;1.73;;;5.70;99.90;;;;;;5025534;28;20021;-59
2021/01/19 12:38:58;;;;;;;2.30;1.20;;;5.70;99.90;;;;;;5014718;28;20052;-59
2021/01/19 12:41:23;;;;;;;2.05;1.15;;;5.70;99.90;;;;;;5021152;28;20022;-60
2021/01/19 12:43:49;;;;;;;2.58;0.80;;;5.70;99.90;;;;;;5031319;28;20483;-60
2021/01/19 12:46:14;;;;;;;3.88;1.70;;;5.70;99.90;;;;;;5021135;28;20061;-60
2021/01/19 12:48:40;;;;;;;1.73;1.20;;;5.80;99.90;;;;;;5025541;28;20033;-62
2021/01/19 12:51:13;;;;;;;3.45;1.77;;;5.80;99.90;;;;;;5031033;28;20028;-62
2021/01/19 12:53:38;;;;;;;5.80;2.38;;;5.80;99.90;;;;;;5030041;28;20036;-58
2021/01/19 12:56:08;;;;;;;6.07;2.63;;;5.80;99.90;;;;;;5029388;28;20026;-59
2021/01/19 12:58:33;;;;;;;6.25;3.55;;;5.90;99.90;;;;;;5033334;28;20391;-59
2021/01/19 13:00:59;;;;;;;3.67;1.77;;;5.90;99.90;;;;;;5032629;28;20033;-58
2021/01/19 13:03:24;;;;;;;5.03;2.38;;;6.00;99.90;;;;;;5028006;28;20038;-59
2021/01/19 13:05:50;;;;;;;4.45;2.83;;;6.00;99.90;;;;;;5009838;28;20488;-58
2021/01/19 13:08:16;;;;;;;6.18;2.70;;;6.00;99.90;;;;;;5032000;28;20030;-61